sensor_id;sensor_type;location;lat;lon;timestamp;pressure;altitude;pressure_sealevel;temperature;humidity
61128;BME280;47013;42.664;23.242;2023-04-28T00:01:10;94236.25;;;6.16;53.11
61128;BME280;47013;42.664;23.242;2023-04-28T00:03:37;94237.03;;;6.17;53.19
61128;BME280;47013;42.664;23.242;2023-04-28T00:06:03;94239.38;;;6.22;53.35
61128;BME280;47013;42.664;23.242;2023-04-28T00:08:28;94237.06;;;6.20;53.19
61128;BME280;47013;42.664;23.242;2023-04-28T00:10:54;94231.94;;;6.08;53.57
61128;BME280;47013;42.664;23.242;2023-04-28T00:13:19;94237.31;;;6.08;54.07
61128;BME280;47013;42.664;23.242;2023-04-28T00:18:13;94233.03;;;6.00;54.49
61128;BME280;47013;42.664;23.242;2023-04-28T00:20:41;94236.06;;;5.99;54.68
61128;BME280;47013;42.664;23.242;2023-04-28T00:23:06;94233.66;;;5.90;54.66
61128;BME280;47013;42.664;23.242;2023-04-28T00:25:34;94242.00;;;5.81;54.65
61128;BME280;47013;42.664;23.242;2023-04-28T00:28:02;94233.66;;;5.90;54.93
61128;BME280;47013;42.664;23.242;2023-04-28T00:30:31;94230.16;;;5.86;54.88
61128;BME280;47013;42.664;23.242;2023-04-28T00:32:56;94234.66;;;5.78;55.06
61128;BME280;47013;42.664;23.242;2023-04-28T00:35:21;94231.88;;;5.71;55.09
61128;BME280;47013;42.664;23.242;2023-04-28T00:37:47;94242.44;;;5.53;55.28
61128;BME280;47013;42.664;23.242;2023-04-28T00:40:12;94239.13;;;5.67;55.77
61128;BME280;47013;42.664;23.242;2023-04-28T00:42:38;94245.34;;;5.41;56.00
61128;BME280;47013;42.664;23.242;2023-04-28T00:45:03;94249.59;;;5.42;56.59
61128;BME280;47013;42.664;23.242;2023-04-28T00:47:35;94250.09;;;5.51;56.25
61128;BME280;47013;42.664;23.242;2023-04-28T00:50:01;94252.78;;;5.51;56.91
61128;BME280;47013;42.664;23.242;2023-04-28T00:52:30;94253.84;;;5.47;56.96
61128;BME280;47013;42.664;23.242;2023-04-28T00:55:04;94249.72;;;5.53;55.67
61128;BME280;47013;42.664;23.242;2023-04-28T00:57:31;94252.03;;;5.54;56.31
61128;BME280;47013;42.664;23.242;2023-04-28T00:59:56;94261.22;;;5.50;56.28
61128;BME280;47013;42.664;23.242;2023-04-28T01:02:25;94253.59;;;5.55;56.10
61128;BME280;47013;42.664;23.242;2023-04-28T01:04:53;94260.94;;;5.58;55.92
61128;BME280;47013;42.664;23.242;2023-04-28T01:07:22;94261.69;;;5.59;55.61
61128;BME280;47013;42.664;23.242;2023-04-28T01:09:47;94259.47;;;5.65;57.04
61128;BME280;47013;42.664;23.242;2023-04-28T01:12:13;94261.06;;;5.69;56.06
61128;BME280;47013;42.664;23.242;2023-04-28T01:14:40;94267.84;;;5.59;55.93
61128;BME280;47013;42.664;23.242;2023-04-28T01:17:06;94266.00;;;5.63;55.40
61128;BME280;47013;42.664;23.242;2023-04-28T01:19:35;94258.34;;;5.66;55.63
61128;BME280;47013;42.664;23.242;2023-04-28T01:22:01;94265.66;;;5.69;54.52
61128;BME280;47013;42.664;23.242;2023-04-28T01:24:26;94266.81;;;5.68;55.00
61128;BME280;47013;42.664;23.242;2023-04-28T01:27:09;94264.91;;;5.68;54.14
61128;BME280;47013;42.664;23.242;2023-04-28T01:29:34;94266.28;;;5.55;54.57
61128;BME280;47013;42.664;23.242;2023-04-28T01:32:00;94268.59;;;5.56;55.29
61128;BME280;47013;42.664;23.242;2023-04-28T01:34:25;94262.06;;;5.57;54.73
61128;BME280;47013;42.664;23.242;2023-04-28T01:36:51;94261.59;;;5.48;54.90
61128;BME280;47013;42.664;23.242;2023-04-28T01:39:16;94261.63;;;5.52;55.75
61128;BME280;47013;42.664;23.242;2023-04-28T01:41:44;94265.13;;;5.56;55.43
61128;BME280;47013;42.664;23.242;2023-04-28T01:44:12;94267.81;;;5.56;55.44
61128;BME280;47013;42.664;23.242;2023-04-28T01:46:43;94265.91;;;5.56;55.46
61128;BME280;47013;42.664;23.242;2023-04-28T01:49:12;94261.28;;;5.57;55.02
61128;BME280;47013;42.664;23.242;2023-04-28T01:51:42;94268.56;;;5.53;55.87
61128;BME280;47013;42.664;23.242;2023-04-28T01:54:07;94262.75;;;5.51;56.32
61128;BME280;47013;42.664;23.242;2023-04-28T01:56:33;94262.34;;;5.49;55.96
61128;BME280;47013;42.664;23.242;2023-04-28T01:58:58;94261.59;;;5.48;56.77
61128;BME280;47013;42.664;23.242;2023-04-28T02:01:26;94263.50;;;5.48;56.79
61128;BME280;47013;42.664;23.242;2023-04-28T02:03:59;94270.78;;;5.47;55.91
61128;BME280;47013;42.664;23.242;2023-04-28T02:06:27;94269.91;;;5.40;55.57
61128;BME280;47013;42.664;23.242;2023-04-28T02:08:52;94259.81;;;5.33;55.94
61128;BME280;47013;42.664;23.242;2023-04-28T02:11:18;94268.66;;;5.33;56.06
61128;BME280;47013;42.664;23.242;2023-04-28T02:13:43;94271.41;;;5.37;56.60
61128;BME280;47013;42.664;23.242;2023-04-28T02:16:09;94268.78;;;5.41;56.79
61128;BME280;47013;42.664;23.242;2023-04-28T02:18:34;94278.75;;;5.40;56.86
61128;BME280;47013;42.664;23.242;2023-04-28T02:21:09;94276.81;;;5.37;56.29
61128;BME280;47013;42.664;23.242;2023-04-28T02:23:38;94282.53;;;5.36;56.51
61128;BME280;47013;42.664;23.242;2023-04-28T02:26:04;94276.41;;;5.35;56.24
61128;BME280;47013;42.664;23.242;2023-04-28T02:28:29;94281.41;;;5.37;55.95
61128;BME280;47013;42.664;23.242;2023-04-28T02:31:09;94281.34;;;5.33;56.52
61128;BME280;47013;42.664;23.242;2023-04-28T02:33:35;94289.75;;;5.31;56.21
61128;BME280;47013;42.664;23.242;2023-04-28T02:36:01;94286.66;;;5.29;56.25
61128;BME280;47013;42.664;23.242;2023-04-28T02:38:27;94287.41;;;5.26;56.84
61128;BME280;47013;42.664;23.242;2023-04-28T02:41:02;94286.63;;;5.26;56.17
61128;BME280;47013;42.664;23.242;2023-04-28T02:43:29;94288.91;;;5.24;56.96
61128;BME280;47013;42.664;23.242;2023-04-28T02:45:54;94292.72;;;5.23;56.91
61128;BME280;47013;42.664;23.242;2023-04-28T02:48:19;94293.50;;;5.23;57.64
61128;BME280;47013;42.664;23.242;2023-04-28T02:50:44;94292.66;;;5.19;56.74
61128;BME280;47013;42.664;23.242;2023-04-28T02:53:10;94296.31;;;5.08;57.07
61128;BME280;47013;42.664;23.242;2023-04-28T02:55:35;94293.72;;;5.11;56.95
61128;BME280;47013;42.664;23.242;2023-04-28T02:58:00;94301.03;;;5.14;56.57
61128;BME280;47013;42.664;23.242;2023-04-28T03:00:26;94303.72;;;5.14;55.92
61128;BME280;47013;42.664;23.242;2023-04-28T03:02:51;94304.75;;;5.06;55.92
61128;BME280;47013;42.664;23.242;2023-04-28T03:05:16;94307.94;;;5.12;56.57
61128;BME280;47013;42.664;23.242;2023-04-28T03:07:41;94310.97;;;5.10;55.62
61128;BME280;47013;42.664;23.242;2023-04-28T03:10:07;94312.78;;;5.02;55.55
61128;BME280;47013;42.664;23.242;2023-04-28T03:12:32;94305.66;;;4.91;56.24
61128;BME280;47013;42.664;23.242;2023-04-28T03:14:57;94308.47;;;4.98;56.22
61128;BME280;47013;42.664;23.242;2023-04-28T03:17:23;94312.78;;;5.02;55.96
61128;BME280;47013;42.664;23.242;2023-04-28T03:19:48;94308.56;;;5.05;55.57
61128;BME280;47013;42.664;23.242;2023-04-28T03:22:13;94316.28;;;5.07;55.94
61128;BME280;47013;42.664;23.242;2023-04-28T03:24:38;94326.25;;;5.06;55.22
61128;BME280;47013;42.664;23.242;2023-04-28T03:27:04;94336.94;;;5.02;55.06
61128;BME280;47013;42.664;23.242;2023-04-28T03:29:29;94332.44;;;4.84;55.22
61128;BME280;47013;42.664;23.242;2023-04-28T03:31:55;94335.91;;;4.84;55.84
61128;BME280;47013;42.664;23.242;2023-04-28T03:34:20;94340.06;;;4.82;56.20
61128;BME280;47013;42.664;23.242;2023-04-28T03:36:46;94342.16;;;4.92;55.49
61128;BME280;47013;42.664;23.242;2023-04-28T03:39:11;94348.00;;;4.97;55.32
61128;BME280;47013;42.664;23.242;2023-04-28T03:41:36;94344.28;;;5.06;55.52
61128;BME280;47013;42.664;23.242;2023-04-28T03:44:01;94348.13;;;5.04;55.05
61128;BME280;47013;42.664;23.242;2023-04-28T03:46:27;94353.75;;;4.96;55.38
61128;BME280;47013;42.664;23.242;2023-04-28T03:48:53;94351.66;;;4.86;54.90
61128;BME280;47013;42.664;23.242;2023-04-28T03:51:18;94348.31;;;4.92;54.47
61128;BME280;47013;42.664;23.242;2023-04-28T03:53:43;94356.91;;;5.01;54.61
61128;BME280;47013;42.664;23.242;2023-04-28T03:56:08;94353.22;;;5.10;54.91
61128;BME280;47013;42.664;23.242;2023-04-28T03:58:34;94365.19;;;5.16;54.16
61128;BME280;47013;42.664;23.242;2023-04-28T04:00:59;94375.66;;;5.21;54.72
61128;BME280;47013;42.664;23.242;2023-04-28T04:03:25;94360.72;;;5.23;53.59
61128;BME280;47013;42.664;23.242;2023-04-28T04:05:51;94368.56;;;5.09;53.77
61128;BME280;47013;42.664;23.242;2023-04-28T04:08:16;94368.84;;;5.04;54.05
61128;BME280;47013;42.664;23.242;2023-04-28T04:10:41;94376.34;;;5.18;54.55
61128;BME280;47013;42.664;23.242;2023-04-28T04:13:07;94375.06;;;5.08;54.37
61128;BME280;47013;42.664;23.242;2023-04-28T04:15:32;94380.53;;;5.15;54.28
61128;BME280;47013;42.664;23.242;2023-04-28T04:17:57;94368.00;;;5.00;54.68
61128;BME280;47013;42.664;23.242;2023-04-28T04:20:22;94375.13;;;5.12;54.51
61128;BME280;47013;42.664;23.242;2023-04-28T04:22:48;94376.53;;;5.06;53.63
61128;BME280;47013;42.664;23.242;2023-04-28T04:25:13;94386.81;;;5.23;54.32
61128;BME280;47013;42.664;23.242;2023-04-28T04:27:38;94390.75;;;5.29;53.93
61128;BME280;47013;42.664;23.242;2023-04-28T04:30:03;94395.16;;;5.41;54.52
61128;BME280;47013;42.664;23.242;2023-04-28T04:32:29;94390.69;;;5.48;53.42
61128;BME280;47013;42.664;23.242;2023-04-28T04:34:54;94388.31;;;5.47;53.17
61128;BME280;47013;42.664;23.242;2023-04-28T04:37:21;94388.00;;;5.48;53.84
61128;BME280;47013;42.664;23.242;2023-04-28T04:39:46;94389.69;;;5.60;53.44
61128;BME280;47013;42.664;23.242;2023-04-28T04:42:11;94389.00;;;5.67;53.08
61128;BME280;47013;42.664;23.242;2023-04-28T04:44:37;94395.63;;;5.73;53.58
61128;BME280;47013;42.664;23.242;2023-04-28T04:47:02;94401.22;;;5.87;53.69
61128;BME280;47013;42.664;23.242;2023-04-28T04:49:27;94398.69;;;5.98;52.87
61128;BME280;47013;42.664;23.242;2023-04-28T04:51:52;94399.97;;;6.07;52.33
61128;BME280;47013;42.664;23.242;2023-04-28T04:54:18;94409.53;;;6.01;52.55
61128;BME280;47013;42.664;23.242;2023-04-28T04:56:43;94406.91;;;6.08;51.56
61128;BME280;47013;42.664;23.242;2023-04-28T04:59:08;94413.06;;;6.09;51.94
61128;BME280;47013;42.664;23.242;2023-04-28T05:01:33;94422.84;;;6.20;52.59
61128;BME280;47013;42.664;23.242;2023-04-28T05:03:59;94416.78;;;6.27;53.02
61128;BME280;47013;42.664;23.242;2023-04-28T05:06:24;94418.38;;;6.32;52.04
61128;BME280;47013;42.664;23.242;2023-04-28T05:08:50;94416.22;;;6.44;51.90
61128;BME280;47013;42.664;23.242;2023-04-28T05:11:15;94422.50;;;6.56;51.47
61128;BME280;47013;42.664;23.242;2023-04-28T05:13:40;94416.25;;;6.48;50.94
61128;BME280;47013;42.664;23.242;2023-04-28T05:16:06;94419.81;;;6.56;51.17
61128;BME280;47013;42.664;23.242;2023-04-28T05:18:31;94414.19;;;6.68;50.89
61128;BME280;47013;42.664;23.242;2023-04-28T05:20:56;94428.09;;;6.73;51.37
61128;BME280;47013;42.664;23.242;2023-04-28T05:23:21;94428.56;;;6.83;50.79
61128;BME280;47013;42.664;23.242;2023-04-28T05:25:47;94431.03;;;6.98;51.28
61128;BME280;47013;42.664;23.242;2023-04-28T05:28:12;94429.16;;;7.02;50.02
61128;BME280;47013;42.664;23.242;2023-04-28T05:30:38;94427.66;;;7.05;49.47
61128;BME280;47013;42.664;23.242;2023-04-28T05:33:03;94425.69;;;7.02;50.17
61128;BME280;47013;42.664;23.242;2023-04-28T05:35:28;94425.00;;;7.12;50.10
61128;BME280;47013;42.664;23.242;2023-04-28T05:37:55;94427.75;;;7.16;50.31
61128;BME280;47013;42.664;23.242;2023-04-28T05:40:20;94417.81;;;7.23;49.11
61128;BME280;47013;42.664;23.242;2023-04-28T05:42:46;94422.16;;;7.38;48.67
61128;BME280;47013;42.664;23.242;2023-04-28T05:45:11;94419.50;;;7.42;48.25
61128;BME280;47013;42.664;23.242;2023-04-28T05:47:36;94420.31;;;7.46;49.71
61128;BME280;47013;42.664;23.242;2023-04-28T05:50:02;94423.91;;;7.64;47.35
61128;BME280;47013;42.664;23.242;2023-04-28T05:52:27;94423.16;;;7.67;46.36
61128;BME280;47013;42.664;23.242;2023-04-28T05:54:52;94422.84;;;7.76;52.18
61128;BME280;47013;42.664;23.242;2023-04-28T05:57:17;94428.31;;;7.87;46.17
61128;BME280;47013;42.664;23.242;2023-04-28T05:59:43;94423.41;;;8.03;46.03
61128;BME280;47013;42.664;23.242;2023-04-28T06:02:08;94428.47;;;8.12;45.67
61128;BME280;47013;42.664;23.242;2023-04-28T06:04:33;94427.28;;;8.06;44.65
61128;BME280;47013;42.664;23.242;2023-04-28T06:06:58;94426.16;;;8.10;44.73
61128;BME280;47013;42.664;23.242;2023-04-28T06:09:24;94424.56;;;7.98;44.76
61128;BME280;47013;42.664;23.242;2023-04-28T06:11:49;94429.28;;;8.16;44.76
61128;BME280;47013;42.664;23.242;2023-04-28T06:14:15;94433.97;;;8.33;44.44
61128;BME280;47013;42.664;23.242;2023-04-28T06:16:40;94429.44;;;8.41;43.98
61128;BME280;47013;42.664;23.242;2023-04-28T06:19:06;94424.41;;;8.43;42.89
61128;BME280;47013;42.664;23.242;2023-04-28T06:21:31;94429.03;;;8.42;43.36
61128;BME280;47013;42.664;23.242;2023-04-28T06:23:57;94430.63;;;8.47;44.14
61128;BME280;47013;42.664;23.242;2023-04-28T06:26:22;94429.09;;;8.56;44.37
61128;BME280;47013;42.664;23.242;2023-04-28T06:28:48;94427.22;;;8.64;43.73
61128;BME280;47013;42.664;23.242;2023-04-28T06:31:13;94438.47;;;8.80;43.89
61128;BME280;47013;42.664;23.242;2023-04-28T06:33:38;94431.59;;;9.08;43.47
61128;BME280;47013;42.664;23.242;2023-04-28T06:36:04;94422.69;;;9.11;41.78
61128;BME280;47013;42.664;23.242;2023-04-28T06:38:29;94427.00;;;9.30;41.80
61128;BME280;47013;42.664;23.242;2023-04-28T06:40:54;94421.19;;;9.35;41.73
61128;BME280;47013;42.664;23.242;2023-04-28T06:43:20;94415.03;;;9.38;41.01
61128;BME280;47013;42.664;23.242;2023-04-28T06:45:45;94419.28;;;9.42;40.41
61128;BME280;47013;42.664;23.242;2023-04-28T06:48:10;94424.69;;;9.50;41.96
61128;BME280;47013;42.664;23.242;2023-04-28T06:50:36;94420.44;;;9.63;42.01
61128;BME280;47013;42.664;23.242;2023-04-28T06:53:01;94419.28;;;9.67;42.21
61128;BME280;47013;42.664;23.242;2023-04-28T06:55:26;94420.06;;;9.79;41.85
61128;BME280;47013;42.664;23.242;2023-04-28T06:57:52;94416.56;;;9.92;40.05
61128;BME280;47013;42.664;23.242;2023-04-28T07:00:17;94419.28;;;9.82;39.66
61128;BME280;47013;42.664;23.242;2023-04-28T07:02:42;94421.13;;;10.42;51.46
61128;BME280;47013;42.664;23.242;2023-04-28T07:05:08;94412.53;;;10.61;40.92
61128;BME280;47013;42.664;23.242;2023-04-28T07:07:33;94421.09;;;10.56;38.25
61128;BME280;47013;42.664;23.242;2023-04-28T07:09:58;94421.03;;;10.67;38.45
61128;BME280;47013;42.664;23.242;2023-04-28T07:12:25;94422.56;;;10.75;38.53
61128;BME280;47013;42.664;23.242;2023-04-28T07:14:50;94417.47;;;10.80;37.90
61128;BME280;47013;42.664;23.242;2023-04-28T07:17:16;94409.31;;;10.87;38.63
61128;BME280;47013;42.664;23.242;2023-04-28T07:19:41;94416.28;;;10.96;38.98
61128;BME280;47013;42.664;23.242;2023-04-28T07:22:06;94405.81;;;10.90;39.45
61128;BME280;47013;42.664;23.242;2023-04-28T07:24:31;94418.13;;;11.06;38.16
61128;BME280;47013;42.664;23.242;2023-04-28T07:26:57;94408.47;;;11.01;38.41
61128;BME280;47013;42.664;23.242;2023-04-28T07:29:22;94411.19;;;11.01;38.74
61128;BME280;47013;42.664;23.242;2023-04-28T07:31:48;94406.91;;;11.04;38.34
61128;BME280;47013;42.664;23.242;2023-04-28T07:34:13;94405.81;;;10.90;37.96
61128;BME280;47013;42.664;23.242;2023-04-28T07:36:38;94404.75;;;10.74;38.97
61128;BME280;47013;42.664;23.242;2023-04-28T07:39:04;94409.66;;;10.97;38.33
61128;BME280;47013;42.664;23.242;2023-04-28T07:41:29;94404.13;;;11.14;38.43
61128;BME280;47013;42.664;23.242;2023-04-28T07:43:55;94403.69;;;11.19;37.90
61128;BME280;47013;42.664;23.242;2023-04-28T07:46:20;94400.22;;;11.19;37.99
61128;BME280;47013;42.664;23.242;2023-04-28T07:48:46;94405.94;;;11.32;37.26
61128;BME280;47013;42.664;23.242;2023-04-28T07:51:12;94393.44;;;11.48;36.62
61128;BME280;47013;42.664;23.242;2023-04-28T07:53:37;94399.16;;;11.61;37.56
61128;BME280;47013;42.664;23.242;2023-04-28T07:56:02;94406.78;;;11.77;36.99
61128;BME280;47013;42.664;23.242;2023-04-28T07:58:27;94391.97;;;11.89;36.10
61128;BME280;47013;42.664;23.242;2023-04-28T08:00:53;94404.00;;;11.88;36.51
61128;BME280;47013;42.664;23.242;2023-04-28T08:03:20;94396.75;;;12.15;35.30
61128;BME280;47013;42.664;23.242;2023-04-28T08:05:45;94400.56;;;12.25;33.75
61128;BME280;47013;42.664;23.242;2023-04-28T08:08:11;94398.25;;;12.20;34.42
61128;BME280;47013;42.664;23.242;2023-04-28T08:10:36;94396.66;;;12.26;35.63
61128;BME280;47013;42.664;23.242;2023-04-28T08:13:04;94394.19;;;12.38;33.88
61128;BME280;47013;42.664;23.242;2023-04-28T08:15:29;94397.84;;;12.59;34.94
61128;BME280;47013;42.664;23.242;2023-04-28T08:17:55;94396.47;;;12.78;34.66
61128;BME280;47013;42.664;23.242;2023-04-28T08:20:20;94397.69;;;13.00;34.38
61128;BME280;47013;42.664;23.242;2023-04-28T08:22:45;94399.50;;;13.10;32.92
61128;BME280;47013;42.664;23.242;2023-04-28T08:25:11;94406.81;;;13.20;33.60
61128;BME280;47013;42.664;23.242;2023-04-28T08:27:36;94403.97;;;13.27;33.25
61128;BME280;47013;42.664;23.242;2023-04-28T08:30:04;94404.72;;;13.28;32.66
61128;BME280;47013;42.664;23.242;2023-04-28T08:32:31;94397.56;;;13.11;33.83
61128;BME280;47013;42.664;23.242;2023-04-28T08:34:56;94391.50;;;13.30;34.19
61128;BME280;47013;42.664;23.242;2023-04-28T08:37:21;94390.41;;;13.51;34.94
61128;BME280;47013;42.664;23.242;2023-04-28T08:39:47;94380.16;;;13.58;33.48
61128;BME280;47013;42.664;23.242;2023-04-28T08:42:12;94383.72;;;13.79;34.33
61128;BME280;47013;42.664;23.242;2023-04-28T08:44:39;94391.78;;;13.86;32.08
61128;BME280;47013;42.664;23.242;2023-04-28T08:47:10;94388.81;;;13.77;33.22
61128;BME280;47013;42.664;23.242;2023-04-28T08:49:36;94391.91;;;14.02;33.16
61128;BME280;47013;42.664;23.242;2023-04-28T08:52:02;94381.72;;;14.26;32.12
61128;BME280;47013;42.664;23.242;2023-04-28T08:54:32;94383.50;;;14.36;31.66
61128;BME280;47013;42.664;23.242;2023-04-28T08:57:00;94376.25;;;14.50;31.44
61128;BME280;47013;42.664;23.242;2023-04-28T08:59:26;94367.66;;;14.51;31.45
61128;BME280;47013;42.664;23.242;2023-04-28T09:01:51;94378.22;;;14.69;31.82
61128;BME280;47013;42.664;23.242;2023-04-28T09:04:17;94372.97;;;14.78;31.77
61128;BME280;47013;42.664;23.242;2023-04-28T09:06:42;94376.13;;;14.77;32.14
61128;BME280;47013;42.664;23.242;2023-04-28T09:09:24;94366.09;;;14.70;30.87
61128;BME280;47013;42.664;23.242;2023-04-28T09:11:53;94372.47;;;14.83;30.93
61128;BME280;47013;42.664;23.242;2023-04-28T09:14:19;94367.66;;;14.51;31.21
61128;BME280;47013;42.664;23.242;2023-04-28T09:16:44;94358.59;;;14.34;31.05
61128;BME280;47013;42.664;23.242;2023-04-28T09:19:10;94357.59;;;14.48;31.89
61128;BME280;47013;42.664;23.242;2023-04-28T09:26:51;94353.75;;;15.01;29.92
61128;BME280;47013;42.664;23.242;2023-04-28T09:29:16;94358.38;;;15.04;29.85
61128;BME280;47013;42.664;23.242;2023-04-28T09:31:42;94348.72;;;15.00;28.84
61128;BME280;47013;42.664;23.242;2023-04-28T09:34:07;94349.91;;;14.99;29.43
61128;BME280;47013;42.664;23.242;2023-04-28T09:36:33;94339.50;;;15.10;29.05
61128;BME280;47013;42.664;23.242;2023-04-28T09:38:59;94342.81;;;15.38;30.09
61128;BME280;47013;42.664;23.242;2023-04-28T09:41:37;94338.53;;;15.37;29.01
61128;BME280;47013;42.664;23.242;2023-04-28T09:44:12;94343.59;;;15.02;28.81
61128;BME280;47013;42.664;23.242;2023-04-28T09:46:38;94336.38;;;15.12;30.52
61128;BME280;47013;42.664;23.242;2023-04-28T09:49:04;94329.63;;;15.16;28.68
61128;BME280;47013;42.664;23.242;2023-04-28T09:51:29;94328.34;;;15.21;28.46
61128;BME280;47013;42.664;23.242;2023-04-28T09:53:55;94334.84;;;15.27;28.48
61128;BME280;47013;42.664;23.242;2023-04-28T09:56:23;94328.28;;;15.24;28.41
61128;BME280;47013;42.664;23.242;2023-04-28T09:58:51;94321.34;;;15.36;29.31
61128;BME280;47013;42.664;23.242;2023-04-28T10:01:17;94318.22;;;15.70;30.78
61128;BME280;47013;42.664;23.242;2023-04-28T10:03:43;94321.47;;;16.10;28.34
61128;BME280;47013;42.664;23.242;2023-04-28T10:06:10;94315.44;;;16.03;28.63
61128;BME280;47013;42.664;23.242;2023-04-28T10:08:35;94313.63;;;16.41;28.59
61128;BME280;47013;42.664;23.242;2023-04-28T10:11:00;94308.50;;;16.56;26.64
61128;BME280;47013;42.664;23.242;2023-04-28T10:13:26;94312.69;;;16.61;26.24
61128;BME280;47013;42.664;23.242;2023-04-28T10:15:51;94310.00;;;16.86;27.18
61128;BME280;47013;42.664;23.242;2023-04-28T10:18:19;94306.84;;;17.00;26.37
61128;BME280;47013;42.664;23.242;2023-04-28T10:20:47;94309.38;;;16.95;25.71
61128;BME280;47013;42.664;23.242;2023-04-28T10:25:57;94296.66;;;17.26;25.85
61128;BME280;47013;42.664;23.242;2023-04-28T10:28:23;94293.03;;;17.42;26.83
61128;BME280;47013;42.664;23.242;2023-04-28T10:33:45;94285.56;;;17.30;25.57
61128;BME280;47013;42.664;23.242;2023-04-28T10:36:17;94293.59;;;16.99;26.07
61128;BME280;47013;42.664;23.242;2023-04-28T10:39:08;94292.81;;;16.98;26.17
61128;BME280;47013;42.664;23.242;2023-04-28T10:41:33;94280.09;;;17.04;25.02
61128;BME280;47013;42.664;23.242;2023-04-28T10:43:59;94283.84;;;17.10;24.99
61128;BME280;47013;42.664;23.242;2023-04-28T10:46:24;94281.75;;;17.02;25.26
61128;BME280;47013;42.664;23.242;2023-04-28T10:58:43;94263.75;;;17.52;23.95
61128;BME280;47013;42.664;23.242;2023-04-28T11:03:54;94258.25;;;17.99;24.00
61128;BME280;47013;42.664;23.242;2023-04-28T11:06:27;94258.72;;;18.19;22.95
61128;BME280;47013;42.664;23.242;2023-04-28T11:08:53;94254.66;;;18.24;22.31
61128;BME280;47013;42.664;23.242;2023-04-28T11:11:28;94262.97;;;18.20;22.64
61128;BME280;47013;42.664;23.242;2023-04-28T11:13:56;94246.97;;;18.19;22.93
61128;BME280;47013;42.664;23.242;2023-04-28T11:19:18;94243.78;;;18.42;22.82
61128;BME280;47013;42.664;23.242;2023-04-28T11:21:44;94240.19;;;18.54;22.62
61128;BME280;47013;42.664;23.242;2023-04-28T11:24:10;94242.94;;;18.54;23.71
61128;BME280;47013;42.664;23.242;2023-04-28T11:26:36;94242.56;;;18.21;23.57
61128;BME280;47013;42.664;23.242;2023-04-28T11:29:02;94247.28;;;18.21;25.26
61128;BME280;47013;42.664;23.242;2023-04-28T11:31:27;94239.25;;;18.26;23.64
61128;BME280;47013;42.664;23.242;2023-04-28T11:36:28;94241.19;;;18.48;23.12
61128;BME280;47013;42.664;23.242;2023-04-28T11:38:54;94229.47;;;18.69;22.26
61128;BME280;47013;42.664;23.242;2023-04-28T11:41:20;94222.84;;;18.89;22.05
61128;BME280;47013;42.664;23.242;2023-04-28T11:43:46;94217.38;;;18.98;22.17
61128;BME280;47013;42.664;23.242;2023-04-28T11:46:21;94230.69;;;19.08;22.93
61128;BME280;47013;42.664;23.242;2023-04-28T11:48:47;94224.66;;;19.32;21.01
61128;BME280;47013;42.664;23.242;2023-04-28T11:53:53;94215.66;;;19.50;22.15
61128;BME280;47013;42.664;23.242;2023-04-28T11:56:19;94213.44;;;19.57;21.81
61128;BME280;47013;42.664;23.242;2023-04-28T11:58:44;94221.16;;;19.50;21.72
61128;BME280;47013;42.664;23.242;2023-04-28T12:01:10;94220.31;;;19.62;21.38
61128;BME280;47013;42.664;23.242;2023-04-28T12:03:45;94211.47;;;19.67;21.09
61128;BME280;47013;42.664;23.242;2023-04-28T12:06:10;94222.97;;;19.34;21.26
61128;BME280;47013;42.664;23.242;2023-04-28T12:08:36;94210.06;;;19.04;23.34
61128;BME280;47013;42.664;23.242;2023-04-28T12:11:10;94213.31;;;19.21;22.74
61128;BME280;47013;42.664;23.242;2023-04-28T12:13:37;94200.88;;;18.89;21.93
61128;BME280;47013;42.664;23.242;2023-04-28T12:16:03;94201.91;;;19.31;21.98
61128;BME280;47013;42.664;23.242;2023-04-28T12:18:30;94201.66;;;19.66;22.33
61128;BME280;47013;42.664;23.242;2023-04-28T12:20:58;94194.94;;;20.03;19.89
61128;BME280;47013;42.664;23.242;2023-04-28T12:23:33;94200.13;;;20.20;19.77
61128;BME280;47013;42.664;23.242;2023-04-28T12:26:02;94204.88;;;20.19;19.80
61128;BME280;47013;42.664;23.242;2023-04-28T12:28:37;94196.03;;;20.06;20.05
61128;BME280;47013;42.664;23.242;2023-04-28T12:31:03;94197.53;;;19.89;20.77
61128;BME280;47013;42.664;23.242;2023-04-28T12:33:28;94188.03;;;20.17;20.59
61128;BME280;47013;42.664;23.242;2023-04-28T12:35:54;94191.88;;;20.11;22.65
61128;BME280;47013;42.664;23.242;2023-04-28T12:38:20;94189.09;;;20.38;21.51
61128;BME280;47013;42.664;23.242;2023-04-28T12:40:45;94182.38;;;20.48;21.24
61128;BME280;47013;42.664;23.242;2023-04-28T12:43:11;94182.78;;;20.56;20.89
61128;BME280;47013;42.664;23.242;2023-04-28T12:45:36;94178.78;;;20.66;21.13
61128;BME280;47013;42.664;23.242;2023-04-28T12:48:01;94176.78;;;20.67;20.76
61128;BME280;47013;42.664;23.242;2023-04-28T12:50:27;94178.88;;;20.81;21.07
61128;BME280;47013;42.664;23.242;2023-04-28T12:52:56;94180.03;;;20.98;21.11
61128;BME280;47013;42.664;23.242;2023-04-28T12:55:21;94176.63;;;21.03;20.58
61128;BME280;47013;42.664;23.242;2023-04-28T12:57:47;94173.59;;;21.01;20.34
61128;BME280;47013;42.664;23.242;2023-04-28T13:00:12;94169.94;;;20.95;20.61
61128;BME280;47013;42.664;23.242;2023-04-28T13:02:40;94171.69;;;20.83;20.67
61128;BME280;47013;42.664;23.242;2023-04-28T13:05:05;94157.00;;;20.77;20.28
61128;BME280;47013;42.664;23.242;2023-04-28T13:07:32;94148.84;;;20.50;21.19
61128;BME280;47013;42.664;23.242;2023-04-28T13:09:57;94159.97;;;20.55;21.54
61128;BME280;47013;42.664;23.242;2023-04-28T13:12:22;94152.84;;;20.30;20.86
61128;BME280;47013;42.664;23.242;2023-04-28T13:14:48;94152.75;;;19.88;21.39
61128;BME280;47013;42.664;23.242;2023-04-28T13:17:13;94156.59;;;19.82;21.40
61128;BME280;47013;42.664;23.242;2023-04-28T13:19:39;94145.69;;;19.51;21.42
61128;BME280;47013;42.664;23.242;2023-04-28T13:22:05;94150.16;;;19.85;21.53
61128;BME280;47013;42.664;23.242;2023-04-28T13:24:31;94153.50;;;20.07;21.35